sensor_id;sensor_type;location;lat;lon;timestamp;pressure;altitude;pressure_sealevel;temperature;humidity
11712;BME280;5912;51.034;6.984;2023-05-20T00:02:00;56298.22;;;-142.13;45.72
11712;BME280;5912;51.034;6.984;2023-05-20T00:04:25;56288.22;;;-142.13;45.53
11712;BME280;5912;51.034;6.984;2023-05-20T00:06:50;56302.25;;;-142.13;45.84
11712;BME280;5912;51.034;6.984;2023-05-20T00:09:16;56300.25;;;-142.13;45.86
11712;BME280;5912;51.034;6.984;2023-05-20T00:11:41;56298.22;;;-142.13;45.71
11712;BME280;5912;51.034;6.984;2023-05-20T00:14:06;56276.19;;;-142.13;46.13
11712;BME280;5912;51.034;6.984;2023-05-20T00:16:32;56286.22;;;-142.13;46.06
11712;BME280;5912;51.034;6.984;2023-05-20T00:18:57;56284.22;;;-142.13;46.12
11712;BME280;5912;51.034;6.984;2023-05-20T00:21:23;56318.25;;;-142.13;46.16
11712;BME280;5912;51.034;6.984;2023-05-20T00:23:49;56328.28;;;-142.13;46.61
11712;BME280;5912;51.034;6.984;2023-05-20T00:26:15;56316.25;;;-142.13;47.01
11712;BME280;5912;51.034;6.984;2023-05-20T00:28:40;56316.25;;;-142.13;47.10
11712;BME280;5912;51.034;6.984;2023-05-20T00:31:05;56348.31;;;-142.13;46.97
11712;BME280;5912;51.034;6.984;2023-05-20T00:33:31;56328.28;;;-142.13;47.33
11712;BME280;5912;51.034;6.984;2023-05-20T00:35:56;56332.28;;;-142.13;47.82
11712;BME280;5912;51.034;6.984;2023-05-20T00:38:21;56338.31;;;-142.13;48.06
11712;BME280;5912;51.034;6.984;2023-05-20T00:40:47;56306.25;;;-142.13;48.57
11712;BME280;5912;51.034;6.984;2023-05-20T00:43:12;56360.34;;;-142.13;49.34
11712;BME280;5912;51.034;6.984;2023-05-20T00:45:37;56350.31;;;-142.13;49.95
11712;BME280;5912;51.034;6.984;2023-05-20T00:48:04;56356.31;;;-142.13;50.66
11712;BME280;5912;51.034;6.984;2023-05-20T00:50:30;56328.28;;;-142.13;50.75
11712;BME280;5912;51.034;6.984;2023-05-20T00:52:55;56342.31;;;-142.13;50.92
11712;BME280;5912;51.034;6.984;2023-05-20T00:55:23;56318.25;;;-142.13;51.26
11712;BME280;5912;51.034;6.984;2023-05-20T00:57:48;56320.28;;;-142.13;51.17
11712;BME280;5912;51.034;6.984;2023-05-20T01:00:14;56360.34;;;-142.13;51.00
11712;BME280;5912;51.034;6.984;2023-05-20T01:02:39;56338.31;;;-142.13;50.94
11712;BME280;5912;51.034;6.984;2023-05-20T01:05:05;56318.25;;;-142.13;50.68
11712;BME280;5912;51.034;6.984;2023-05-20T01:07:31;56304.25;;;-142.13;50.48
11712;BME280;5912;51.034;6.984;2023-05-20T01:09:56;56332.28;;;-142.13;50.51
11712;BME280;5912;51.034;6.984;2023-05-20T01:12:25;56324.28;;;-142.13;50.21
11712;BME280;5912;51.034;6.984;2023-05-20T01:15:01;56336.28;;;-142.13;50.15
11712;BME280;5912;51.034;6.984;2023-05-20T01:17:30;56308.25;;;-142.13;49.82
11712;BME280;5912;51.034;6.984;2023-05-20T01:19:58;56508.56;;;-142.13;49.55
11712;BME280;5912;51.034;6.984;2023-05-20T01:22:26;56336.28;;;-142.13;49.64
11712;BME280;5912;51.034;6.984;2023-05-20T01:24:51;56310.25;;;-142.13;49.69
11712;BME280;5912;51.034;6.984;2023-05-20T01:27:18;56312.25;;;-142.13;49.86
11712;BME280;5912;51.034;6.984;2023-05-20T01:29:44;56332.28;;;-142.13;49.92
11712;BME280;5912;51.034;6.984;2023-05-20T01:32:19;56320.28;;;-142.13;49.77
11712;BME280;5912;51.034;6.984;2023-05-20T01:34:47;56338.31;;;-142.13;50.05
11712;BME280;5912;51.034;6.984;2023-05-20T01:37:13;56328.28;;;-142.13;50.26
11712;BME280;5912;51.034;6.984;2023-05-20T01:39:40;56440.47;;;-142.13;50.58
11712;BME280;5912;51.034;6.984;2023-05-20T01:42:07;56344.31;;;-142.13;51.01
11712;BME280;5912;51.034;6.984;2023-05-20T01:44:35;56338.31;;;-142.13;51.58
11712;BME280;5912;51.034;6.984;2023-05-20T01:47:01;56370.34;;;-142.13;51.82
11712;BME280;5912;51.034;6.984;2023-05-20T01:49:26;56342.31;;;-142.13;52.31
11712;BME280;5912;51.034;6.984;2023-05-20T01:51:52;56342.31;;;-142.13;52.68
11712;BME280;5912;51.034;6.984;2023-05-20T01:54:17;56346.31;;;-142.13;53.01
11712;BME280;5912;51.034;6.984;2023-05-20T01:56:44;56360.34;;;-142.13;53.26
11712;BME280;5912;51.034;6.984;2023-05-20T01:59:10;56362.34;;;-142.13;53.21
11712;BME280;5912;51.034;6.984;2023-05-20T02:01:35;56338.31;;;-142.13;53.43
11712;BME280;5912;51.034;6.984;2023-05-20T02:04:01;56334.28;;;-142.13;53.58
11712;BME280;5912;51.034;6.984;2023-05-20T02:06:26;56336.28;;;-142.13;54.09
11712;BME280;5912;51.034;6.984;2023-05-20T02:08:51;56364.34;;;-142.13;54.20
11712;BME280;5912;51.034;6.984;2023-05-20T02:11:16;56372.34;;;-142.13;54.04
11712;BME280;5912;51.034;6.984;2023-05-20T02:13:42;56340.31;;;-142.13;54.51
11712;BME280;5912;51.034;6.984;2023-05-20T02:16:07;56356.31;;;-142.13;54.54
11712;BME280;5912;51.034;6.984;2023-05-20T02:18:32;56342.31;;;-142.13;54.49
11712;BME280;5912;51.034;6.984;2023-05-20T02:21:02;56368.34;;;-142.13;54.75
11712;BME280;5912;51.034;6.984;2023-05-20T02:23:30;56344.31;;;-142.13;54.64
11712;BME280;5912;51.034;6.984;2023-05-20T02:25:56;56328.28;;;-142.13;55.13
11712;BME280;5912;51.034;6.984;2023-05-20T02:28:21;56358.34;;;-142.13;55.32
11712;BME280;5912;51.034;6.984;2023-05-20T02:30:47;56350.31;;;-142.13;55.36
11712;BME280;5912;51.034;6.984;2023-05-20T02:33:15;56362.34;;;-142.13;55.28
11712;BME280;5912;51.034;6.984;2023-05-20T02:35:40;56360.34;;;-142.13;55.41
11712;BME280;5912;51.034;6.984;2023-05-20T02:38:05;56350.31;;;-142.13;55.58
11712;BME280;5912;51.034;6.984;2023-05-20T02:40:43;56372.34;;;-142.13;55.85
11712;BME280;5912;51.034;6.984;2023-05-20T02:43:09;56342.31;;;-142.13;55.96
11712;BME280;5912;51.034;6.984;2023-05-20T02:45:34;56360.34;;;-142.13;55.88
11712;BME280;5912;51.034;6.984;2023-05-20T02:48:00;56350.31;;;-142.13;55.89
11712;BME280;5912;51.034;6.984;2023-05-20T02:50:25;56348.31;;;-142.13;56.10
11712;BME280;5912;51.034;6.984;2023-05-20T02:52:50;56362.34;;;-142.13;56.32
11712;BME280;5912;51.034;6.984;2023-05-20T02:55:16;56348.31;;;-142.13;56.64
11712;BME280;5912;51.034;6.984;2023-05-20T02:57:41;56370.34;;;-142.13;56.99
11712;BME280;5912;51.034;6.984;2023-05-20T03:00:07;56338.31;;;-142.13;56.85
11712;BME280;5912;51.034;6.984;2023-05-20T03:02:37;56390.38;;;-142.13;57.33
11712;BME280;5912;51.034;6.984;2023-05-20T03:05:03;56396.41;;;-142.13;57.40
11712;BME280;5912;51.034;6.984;2023-05-20T03:07:29;56346.31;;;-142.13;57.28
11712;BME280;5912;51.034;6.984;2023-05-20T03:09:56;56388.38;;;-142.13;58.01
11712;BME280;5912;51.034;6.984;2023-05-20T03:12:23;56380.38;;;-142.13;58.18
11712;BME280;5912;51.034;6.984;2023-05-20T03:14:50;56356.31;;;-142.13;58.16
11712;BME280;5912;51.034;6.984;2023-05-20T03:17:19;56358.34;;;-142.13;58.69
11712;BME280;5912;51.034;6.984;2023-05-20T03:19:44;56342.31;;;-142.13;58.54
11712;BME280;5912;51.034;6.984;2023-05-20T03:22:10;56384.38;;;-142.13;58.67
11712;BME280;5912;51.034;6.984;2023-05-20T03:24:35;56376.34;;;-142.13;59.38
11712;BME280;5912;51.034;6.984;2023-05-20T03:27:01;56350.31;;;-142.13;59.84
11712;BME280;5912;51.034;6.984;2023-05-20T03:29:26;56376.34;;;-142.13;59.63
11712;BME280;5912;51.034;6.984;2023-05-20T03:31:51;56370.34;;;-142.13;59.69
11712;BME280;5912;51.034;6.984;2023-05-20T03:34:17;56340.31;;;-142.13;60.01
11712;BME280;5912;51.034;6.984;2023-05-20T03:36:42;56386.38;;;-142.13;60.06
11712;BME280;5912;51.034;6.984;2023-05-20T03:39:07;56380.38;;;-142.13;59.85
11712;BME280;5912;51.034;6.984;2023-05-20T03:41:32;56368.34;;;-142.13;59.69
11712;BME280;5912;51.034;6.984;2023-05-20T03:44:07;56336.28;;;-142.13;59.91
11712;BME280;5912;51.034;6.984;2023-05-20T03:46:32;56360.34;;;-142.13;60.47
11712;BME280;5912;51.034;6.984;2023-05-20T03:48:58;56364.34;;;-142.13;60.48
11712;BME280;5912;51.034;6.984;2023-05-20T03:51:26;56400.41;;;-142.13;60.47
11712;BME280;5912;51.034;6.984;2023-05-20T03:53:51;56392.38;;;-142.13;60.34
11712;BME280;5912;51.034;6.984;2023-05-20T03:56:16;56348.31;;;-142.13;60.60
11712;BME280;5912;51.034;6.984;2023-05-20T03:58:41;56340.31;;;-142.13;60.20
11712;BME280;5912;51.034;6.984;2023-05-20T04:01:07;56384.38;;;-142.13;60.27
11712;BME280;5912;51.034;6.984;2023-05-20T04:03:32;56370.34;;;-142.13;59.80
11712;BME280;5912;51.034;6.984;2023-05-20T04:05:58;56384.38;;;-142.13;59.92
11712;BME280;5912;51.034;6.984;2023-05-20T04:08:23;56364.34;;;-142.13;59.70
11712;BME280;5912;51.034;6.984;2023-05-20T04:10:54;56346.31;;;-142.13;59.85
11712;BME280;5912;51.034;6.984;2023-05-20T04:13:19;56368.34;;;-142.13;59.52
11712;BME280;5912;51.034;6.984;2023-05-20T04:15:44;56372.34;;;-142.13;59.66
11712;BME280;5912;51.034;6.984;2023-05-20T04:18:10;56370.34;;;-142.13;59.54
11712;BME280;5912;51.034;6.984;2023-05-20T04:20:36;56358.34;;;-142.13;59.57
11712;BME280;5912;51.034;6.984;2023-05-20T04:23:01;56358.34;;;-142.13;59.55
11712;BME280;5912;51.034;6.984;2023-05-20T04:25:26;56358.34;;;-142.13;59.49
11712;BME280;5912;51.034;6.984;2023-05-20T04:27:52;56336.28;;;-142.13;59.35
11712;BME280;5912;51.034;6.984;2023-05-20T04:30:18;56334.28;;;-142.13;58.91
11712;BME280;5912;51.034;6.984;2023-05-20T04:32:45;56360.34;;;-142.13;58.02
11712;BME280;5912;51.034;6.984;2023-05-20T04:35:12;56334.28;;;-142.13;57.63
11712;BME280;5912;51.034;6.984;2023-05-20T04:37:38;56312.25;;;-142.13;57.06
11712;BME280;5912;51.034;6.984;2023-05-20T04:40:04;56316.25;;;-142.13;56.96
11712;BME280;5912;51.034;6.984;2023-05-20T04:42:31;56320.28;;;-142.13;56.61
11712;BME280;5912;51.034;6.984;2023-05-20T04:44:58;56320.28;;;-142.13;56.86
11712;BME280;5912;51.034;6.984;2023-05-20T04:47:28;56344.31;;;-142.13;55.96
11712;BME280;5912;51.034;6.984;2023-05-20T04:49:54;56302.25;;;-142.13;54.53
11712;BME280;5912;51.034;6.984;2023-05-20T04:52:25;56286.22;;;-142.13;53.77
11712;BME280;5912;51.034;6.984;2023-05-20T04:54:51;56280.22;;;-142.13;53.31
11712;BME280;5912;51.034;6.984;2023-05-20T04:57:16;56296.22;;;-142.13;52.63
11712;BME280;5912;51.034;6.984;2023-05-20T04:59:46;56276.19;;;-142.13;51.98
11712;BME280;5912;51.034;6.984;2023-05-20T05:02:11;56252.16;;;-142.13;51.49
11712;BME280;5912;51.034;6.984;2023-05-20T05:04:36;56268.19;;;-142.13;51.25
11712;BME280;5912;51.034;6.984;2023-05-20T05:07:01;56274.19;;;-142.13;51.17
11712;BME280;5912;51.034;6.984;2023-05-20T05:09:27;56272.19;;;-142.13;50.79
11712;BME280;5912;51.034;6.984;2023-05-20T05:11:52;56276.19;;;-142.13;50.24
11712;BME280;5912;51.034;6.984;2023-05-20T05:14:17;56248.16;;;-142.13;49.69
11712;BME280;5912;51.034;6.984;2023-05-20T05:16:43;56274.19;;;-142.13;48.74
11712;BME280;5912;51.034;6.984;2023-05-20T05:19:08;56248.16;;;-142.13;48.71
11712;BME280;5912;51.034;6.984;2023-05-20T05:21:33;56256.16;;;-142.13;49.10
11712;BME280;5912;51.034;6.984;2023-05-20T05:23:59;56208.09;;;-142.13;48.21
11712;BME280;5912;51.034;6.984;2023-05-20T05:26:24;56244.16;;;-142.13;47.97
11712;BME280;5912;51.034;6.984;2023-05-20T05:28:50;56228.13;;;-142.13;46.90
11712;BME280;5912;51.034;6.984;2023-05-20T05:31:16;56252.16;;;-142.13;46.41
11712;BME280;5912;51.034;6.984;2023-05-20T05:33:41;56224.13;;;-142.13;45.65
11712;BME280;5912;51.034;6.984;2023-05-20T05:36:06;56196.06;;;-142.13;45.44
11712;BME280;5912;51.034;6.984;2023-05-20T05:38:31;56222.13;;;-142.13;45.00
11712;BME280;5912;51.034;6.984;2023-05-20T05:40:57;56210.09;;;-142.13;45.21
11712;BME280;5912;51.034;6.984;2023-05-20T05:43:22;56204.09;;;-142.13;45.07
11712;BME280;5912;51.034;6.984;2023-05-20T05:45:47;56228.13;;;-142.13;44.60
11712;BME280;5912;51.034;6.984;2023-05-20T05:48:13;56198.06;;;-142.13;44.11
11712;BME280;5912;51.034;6.984;2023-05-20T05:50:38;56180.06;;;-142.13;44.02
11712;BME280;5912;51.034;6.984;2023-05-20T05:53:07;56208.09;;;-142.13;43.29
11712;BME280;5912;51.034;6.984;2023-05-20T05:55:32;56216.09;;;-142.13;43.56
11712;BME280;5912;51.034;6.984;2023-05-20T05:57:58;56200.09;;;-142.13;43.70
11712;BME280;5912;51.034;6.984;2023-05-20T06:00:23;56176.03;;;-142.13;42.98
11712;BME280;5912;51.034;6.984;2023-05-20T06:02:48;56194.06;;;-142.13;43.06
11712;BME280;5912;51.034;6.984;2023-05-20T06:05:14;56186.06;;;-142.13;42.71
11712;BME280;5912;51.034;6.984;2023-05-20T06:07:39;56176.03;;;-142.13;42.73
11712;BME280;5912;51.034;6.984;2023-05-20T06:10:05;56182.06;;;-142.13;42.67
11712;BME280;5912;51.034;6.984;2023-05-20T06:12:30;56182.06;;;-142.13;42.81
11712;BME280;5912;51.034;6.984;2023-05-20T06:14:55;56198.06;;;-142.13;42.49
11712;BME280;5912;51.034;6.984;2023-05-20T06:17:21;56184.06;;;-142.13;41.92
11712;BME280;5912;51.034;6.984;2023-05-20T06:19:46;56190.06;;;-142.13;41.56
11712;BME280;5912;51.034;6.984;2023-05-20T06:22:11;56162.03;;;-142.13;41.26
11712;BME280;5912;51.034;6.984;2023-05-20T06:24:36;56180.06;;;-142.13;41.68
11712;BME280;5912;51.034;6.984;2023-05-20T06:27:02;56184.06;;;-142.13;41.27
11712;BME280;5912;51.034;6.984;2023-05-20T06:29:27;56152.00;;;-142.13;41.00
11712;BME280;5912;51.034;6.984;2023-05-20T06:31:53;56160.03;;;-142.13;41.28
11712;BME280;5912;51.034;6.984;2023-05-20T06:34:18;56184.06;;;-142.13;41.06
11712;BME280;5912;51.034;6.984;2023-05-20T06:36:43;56166.03;;;-142.13;40.81
11712;BME280;5912;51.034;6.984;2023-05-20T06:39:09;56172.03;;;-142.13;41.62
11712;BME280;5912;51.034;6.984;2023-05-20T06:41:40;56192.06;;;-142.13;40.67
11712;BME280;5912;51.034;6.984;2023-05-20T06:44:06;56137.97;;;-142.13;40.99
11712;BME280;5912;51.034;6.984;2023-05-20T06:46:32;56172.03;;;-142.13;41.27
11712;BME280;5912;51.034;6.984;2023-05-20T06:48:57;56172.03;;;-142.13;40.67
11712;BME280;5912;51.034;6.984;2023-05-20T06:51:23;56160.03;;;-142.13;40.43
11712;BME280;5912;51.034;6.984;2023-05-20T06:53:48;56164.03;;;-142.13;40.43
11712;BME280;5912;51.034;6.984;2023-05-20T06:56:13;56160.03;;;-142.13;40.79
11712;BME280;5912;51.034;6.984;2023-05-20T06:58:39;56148.00;;;-142.13;40.59
11712;BME280;5912;51.034;6.984;2023-05-20T07:01:04;56129.97;;;-142.13;40.14
11712;BME280;5912;51.034;6.984;2023-05-20T07:03:29;56152.00;;;-142.13;39.80
11712;BME280;5912;51.034;6.984;2023-05-20T07:05:55;56154.00;;;-142.13;39.48
11712;BME280;5912;51.034;6.984;2023-05-20T07:08:20;56144.00;;;-142.13;39.56
11712;BME280;5912;51.034;6.984;2023-05-20T07:10:46;56148.00;;;-142.13;39.97
11712;BME280;5912;51.034;6.984;2023-05-20T07:13:11;56125.97;;;-142.13;39.20
11712;BME280;5912;51.034;6.984;2023-05-20T07:15:37;56095.91;;;-142.13;38.95
11712;BME280;5912;51.034;6.984;2023-05-20T07:18:02;56097.94;;;-142.13;39.19
11712;BME280;5912;51.034;6.984;2023-05-20T07:20:28;56103.94;;;-142.13;38.88
11712;BME280;5912;51.034;6.984;2023-05-20T07:22:53;56097.94;;;-142.13;37.94
11712;BME280;5912;51.034;6.984;2023-05-20T07:25:18;56087.91;;;-142.13;37.92
11712;BME280;5912;51.034;6.984;2023-05-20T07:27:44;56115.94;;;-142.13;37.65
11712;BME280;5912;51.034;6.984;2023-05-20T07:30:10;56089.91;;;-142.13;37.12
11712;BME280;5912;51.034;6.984;2023-05-20T07:32:35;56071.88;;;-142.13;37.00
11712;BME280;5912;51.034;6.984;2023-05-20T07:35:01;56067.88;;;-142.13;36.88
11712;BME280;5912;51.034;6.984;2023-05-20T07:37:26;56039.84;;;-142.13;36.24
11712;BME280;5912;51.034;6.984;2023-05-20T07:39:51;56075.88;;;-142.13;36.05
11712;BME280;5912;51.034;6.984;2023-05-20T07:42:17;56047.84;;;-142.13;35.67
11712;BME280;5912;51.034;6.984;2023-05-20T07:44:42;56019.81;;;-142.13;35.06
11712;BME280;5912;51.034;6.984;2023-05-20T07:47:08;56021.81;;;-142.13;35.41
11712;BME280;5912;51.034;6.984;2023-05-20T07:49:33;56021.81;;;-142.13;34.98
11712;BME280;5912;51.034;6.984;2023-05-20T07:51:58;56007.78;;;-142.13;34.54
11712;BME280;5912;51.034;6.984;2023-05-20T07:54:25;56007.78;;;-142.13;34.46
11712;BME280;5912;51.034;6.984;2023-05-20T07:56:50;56035.81;;;-142.13;34.83
11712;BME280;5912;51.034;6.984;2023-05-20T07:59:16;56011.78;;;-142.13;34.95
11712;BME280;5912;51.034;6.984;2023-05-20T08:01:41;56023.81;;;-142.13;35.09
11712;BME280;5912;51.034;6.984;2023-05-20T08:04:07;56025.81;;;-142.13;35.08
11712;BME280;5912;51.034;6.984;2023-05-20T08:06:32;56009.78;;;-142.13;35.01
11712;BME280;5912;51.034;6.984;2023-05-20T08:08:59;55993.75;;;-142.13;35.06
11712;BME280;5912;51.034;6.984;2023-05-20T08:11:25;56001.78;;;-142.13;34.79
11712;BME280;5912;51.034;6.984;2023-05-20T08:13:50;55989.75;;;-142.13;34.47
11712;BME280;5912;51.034;6.984;2023-05-20T08:16:16;56009.78;;;-142.13;33.59
11712;BME280;5912;51.034;6.984;2023-05-20T08:18:41;55991.75;;;-142.13;34.09
11712;BME280;5912;51.034;6.984;2023-05-20T08:21:06;55979.75;;;-142.13;33.36
11712;BME280;5912;51.034;6.984;2023-05-20T08:23:33;55983.75;;;-142.13;33.94
11712;BME280;5912;51.034;6.984;2023-05-20T08:25:58;55995.78;;;-142.13;34.30
11712;BME280;5912;51.034;6.984;2023-05-20T08:28:27;55961.72;;;-142.13;33.68
11712;BME280;5912;51.034;6.984;2023-05-20T08:30:52;55975.75;;;-142.13;32.85
11712;BME280;5912;51.034;6.984;2023-05-20T08:33:17;55949.69;;;-142.13;32.80
11712;BME280;5912;51.034;6.984;2023-05-20T08:35:44;55935.69;;;-142.13;33.24
11712;BME280;5912;51.034;6.984;2023-05-20T08:38:09;55939.69;;;-142.13;32.44
11712;BME280;5912;51.034;6.984;2023-05-20T08:40:35;55917.66;;;-142.13;32.14
11712;BME280;5912;51.034;6.984;2023-05-20T08:43:01;55913.66;;;-142.13;31.14
11712;BME280;5912;51.034;6.984;2023-05-20T08:45:30;55901.63;;;-142.13;31.57
11712;BME280;5912;51.034;6.984;2023-05-20T08:47:56;55879.59;;;-142.13;31.17
11712;BME280;5912;51.034;6.984;2023-05-20T08:50:22;55891.63;;;-142.13;31.48
11712;BME280;5912;51.034;6.984;2023-05-20T08:52:47;55911.66;;;-142.13;31.16
11712;BME280;5912;51.034;6.984;2023-05-20T08:55:36;55907.63;;;-142.13;31.49
11712;BME280;5912;51.034;6.984;2023-05-20T08:58:02;55899.63;;;-142.13;31.28
11712;BME280;5912;51.034;6.984;2023-05-20T09:00:28;55903.63;;;-142.13;30.86
11712;BME280;5912;51.034;6.984;2023-05-20T09:02:55;55919.66;;;-142.13;31.05
11712;BME280;5912;51.034;6.984;2023-05-20T09:05:21;55907.63;;;-142.13;31.64
11712;BME280;5912;51.034;6.984;2023-05-20T09:07:47;55953.72;;;-142.13;31.26
11712;BME280;5912;51.034;6.984;2023-05-20T09:10:13;55931.66;;;-142.13;31.75
11712;BME280;5912;51.034;6.984;2023-05-20T09:12:38;55939.69;;;-142.13;31.55
11712;BME280;5912;51.034;6.984;2023-05-20T09:15:05;55927.66;;;-142.13;32.07
11712;BME280;5912;51.034;6.984;2023-05-20T09:17:33;55943.69;;;-142.13;32.18
11712;BME280;5912;51.034;6.984;2023-05-20T09:19:59;55951.69;;;-142.13;32.35
11712;BME280;5912;51.034;6.984;2023-05-20T09:22:25;55943.69;;;-142.13;32.46
11712;BME280;5912;51.034;6.984;2023-05-20T09:24:52;55941.69;;;-142.13;32.42
11712;BME280;5912;51.034;6.984;2023-05-20T09:27:21;55949.69;;;-142.13;32.16
11712;BME280;5912;51.034;6.984;2023-05-20T09:29:47;55939.69;;;-142.13;32.17
11712;BME280;5912;51.034;6.984;2023-05-20T09:32:13;55981.75;;;-142.13;32.53
11712;BME280;5912;51.034;6.984;2023-05-20T09:34:39;55939.69;;;-142.13;32.94
11712;BME280;5912;51.034;6.984;2023-05-20T09:37:09;55945.69;;;-142.13;32.11
11712;BME280;5912;51.034;6.984;2023-05-20T09:39:54;55939.69;;;-142.13;32.04
11712;BME280;5912;51.034;6.984;2023-05-20T09:42:30;55923.66;;;-142.13;32.09
11712;BME280;5912;51.034;6.984;2023-05-20T09:45:01;55907.63;;;-142.13;31.29
11712;BME280;5912;51.034;6.984;2023-05-20T09:47:28;55887.59;;;-142.13;30.42
11712;BME280;5912;51.034;6.984;2023-05-20T09:49:55;55869.59;;;-142.13;30.37
11712;BME280;5912;51.034;6.984;2023-05-20T09:52:21;55859.56;;;-142.13;30.34
11712;BME280;5912;51.034;6.984;2023-05-20T09:54:47;55847.56;;;-142.13;30.56
11712;BME280;5912;51.034;6.984;2023-05-20T09:57:13;55809.50;;;-142.13;30.17
11712;BME280;5912;51.034;6.984;2023-05-20T09:59:39;55815.50;;;-142.13;29.27
11712;BME280;5912;51.034;6.984;2023-05-20T10:02:06;55845.53;;;-142.13;30.01
11712;BME280;5912;51.034;6.984;2023-05-20T10:04:36;55847.56;;;-142.13;30.09
11712;BME280;5912;51.034;6.984;2023-05-20T10:10:24;55847.56;;;-142.13;29.61
11712;BME280;5912;51.034;6.984;2023-05-20T10:15:39;55863.56;;;-142.13;29.68
11712;BME280;5912;51.034;6.984;2023-05-20T10:18:35;55879.59;;;-142.13;30.68
11712;BME280;5912;51.034;6.984;2023-05-20T10:21:02;55875.59;;;-142.13;29.97
11712;BME280;5912;51.034;6.984;2023-05-20T10:23:28;55887.59;;;-142.13;30.61
11712;BME280;5912;51.034;6.984;2023-05-20T10:25:55;55895.63;;;-142.13;31.71
11712;BME280;5912;51.034;6.984;2023-05-20T10:28:33;55911.66;;;-142.13;31.41
11712;BME280;5912;51.034;6.984;2023-05-20T10:31:13;55925.66;;;-142.13;31.95
11712;BME280;5912;51.034;6.984;2023-05-20T10:33:42;55949.69;;;-142.13;32.41
11712;BME280;5912;51.034;6.984;2023-05-20T10:36:08;55955.72;;;-142.13;32.08
11712;BME280;5912;51.034;6.984;2023-05-20T10:38:33;55979.75;;;-142.13;32.80
11712;BME280;5912;51.034;6.984;2023-05-20T10:41:08;55957.72;;;-142.13;33.12
11712;BME280;5912;51.034;6.984;2023-05-20T10:43:35;55987.75;;;-142.13;33.45
11712;BME280;5912;51.034;6.984;2023-05-20T10:46:01;55999.78;;;-142.13;33.84
11712;BME280;5912;51.034;6.984;2023-05-20T10:48:27;55975.75;;;-142.13;33.50
11712;BME280;5912;51.034;6.984;2023-05-20T10:50:54;55985.75;;;-142.13;34.14
11712;BME280;5912;51.034;6.984;2023-05-20T10:53:22;55999.78;;;-142.13;34.61
11712;BME280;5912;51.034;6.984;2023-05-20T10:55:50;55981.75;;;-142.13;34.49
11712;BME280;5912;51.034;6.984;2023-05-20T10:58:16;55991.75;;;-142.13;33.80
11712;BME280;5912;51.034;6.984;2023-05-20T11:00:42;56021.81;;;-142.13;33.87
11712;BME280;5912;51.034;6.984;2023-05-20T11:03:08;55983.75;;;-142.13;33.63
11712;BME280;5912;51.034;6.984;2023-05-20T11:05:34;56013.78;;;-142.13;34.09
11712;BME280;5912;51.034;6.984;2023-05-20T11:08:04;55979.75;;;-142.13;33.77
11712;BME280;5912;51.034;6.984;2023-05-20T11:10:30;55975.75;;;-142.13;33.47
11712;BME280;5912;51.034;6.984;2023-05-20T11:12:57;55971.72;;;-142.13;33.57
11712;BME280;5912;51.034;6.984;2023-05-20T11:15:23;55967.72;;;-142.13;33.61
11712;BME280;5912;51.034;6.984;2023-05-20T11:17:55;55957.72;;;-142.13;32.87
11712;BME280;5912;51.034;6.984;2023-05-20T11:20:22;55947.69;;;-142.13;32.73
11712;BME280;5912;51.034;6.984;2023-05-20T11:22:52;55931.66;;;-142.13;32.14
11712;BME280;5912;51.034;6.984;2023-05-20T11:25:19;55899.63;;;-142.13;31.77
11712;BME280;5912;51.034;6.984;2023-05-20T11:27:44;55943.69;;;-142.13;32.11
11712;BME280;5912;51.034;6.984;2023-05-20T11:30:13;55911.66;;;-142.13;32.25
11712;BME280;5912;51.034;6.984;2023-05-20T11:32:43;55945.69;;;-142.13;32.14
11712;BME280;5912;51.034;6.984;2023-05-20T11:35:31;55911.66;;;-142.13;32.03
11712;BME280;5912;51.034;6.984;2023-05-20T11:38:06;55923.66;;;-142.13;32.22
11712;BME280;5912;51.034;6.984;2023-05-20T11:40:34;55907.63;;;-142.13;32.60
11712;BME280;5912;51.034;6.984;2023-05-20T11:43:00;55927.66;;;-142.13;32.57
11712;BME280;5912;51.034;6.984;2023-05-20T11:45:26;55897.63;;;-142.13;32.49
11712;BME280;5912;51.034;6.984;2023-05-20T11:48:03;55893.63;;;-142.13;32.09
11712;BME280;5912;51.034;6.984;2023-05-20T11:50:34;55911.66;;;-142.13;31.74
11712;BME280;5912;51.034;6.984;2023-05-20T11:53:02;55901.63;;;-142.13;31.74
11712;BME280;5912;51.034;6.984;2023-05-20T11:55:27;55895.63;;;-142.13;31.82
11712;BME280;5912;51.034;6.984;2023-05-20T11:57:54;55899.63;;;-142.13;31.86
11712;BME280;5912;51.034;6.984;2023-05-20T12:00:22;55867.56;;;-142.13;31.93
11712;BME280;5912;51.034;6.984;2023-05-20T12:02:47;55895.63;;;-142.13;31.19
11712;BME280;5912;51.034;6.984;2023-05-20T12:05:15;55887.59;;;-142.13;31.37
11712;BME280;5912;51.034;6.984;2023-05-20T12:07:42;55895.63;;;-142.13;31.19
11712;BME280;5912;51.034;6.984;2023-05-20T12:10:08;55879.59;;;-142.13;31.25
11712;BME280;5912;51.034;6.984;2023-05-20T12:12:33;55875.59;;;-142.13;31.81
11712;BME280;5912;51.034;6.984;2023-05-20T12:15:01;55887.59;;;-142.13;31.42
11712;BME280;5912;51.034;6.984;2023-05-20T12:17:26;55897.63;;;-142.13;31.58
11712;BME280;5912;51.034;6.984;2023-05-20T12:19:52;55895.63;;;-142.13;32.18
11712;BME280;5912;51.034;6.984;2023-05-20T12:22:17;55907.63;;;-142.13;31.92
11712;BME280;5912;51.034;6.984;2023-05-20T12:24:43;55907.63;;;-142.13;31.93
11712;BME280;5912;51.034;6.984;2023-05-20T12:27:08;55903.63;;;-142.13;32.31
11712;BME280;5912;51.034;6.984;2023-05-20T12:29:34;55905.63;;;-142.13;32.51
11712;BME280;5912;51.034;6.984;2023-05-20T12:31:59;55915.66;;;-142.13;32.23
11712;BME280;5912;51.034;6.984;2023-05-20T12:34:25;55905.63;;;-142.13;32.53
11712;BME280;5912;51.034;6.984;2023-05-20T12:36:50;55899.63;;;-142.13;32.60
11712;BME280;5912;51.034;6.984;2023-05-20T12:39:17;55871.59;;;-142.13;32.12
11712;BME280;5912;51.034;6.984;2023-05-20T12:41:43;55887.59;;;-142.13;31.97
11712;BME280;5912;51.034;6.984;2023-05-20T12:44:08;55891.63;;;-142.13;31.56
11712;BME280;5912;51.034;6.984;2023-05-20T12:46:37;55943.69;;;-142.13;31.66
11712;BME280;5912;51.034;6.984;2023-05-20T12:49:02;55889.59;;;-142.13;31.56
11712;BME280;5912;51.034;6.984;2023-05-20T12:51:28;55903.63;;;-142.13;31.28
11712;BME280;5912;51.034;6.984;2023-05-20T12:53:53;55909.63;;;-142.13;31.89